sensor_id;sensor_type;location;lat;lon;timestamp;temperature;humidity
77247;SHT35;66279;42.820;23.374;2023-04-30T05:22:56;8.92;79.97
77247;SHT35;66279;42.820;23.374;2023-04-30T05:25:42;8.99;78.75
77247;SHT35;66279;42.820;23.374;2023-04-30T05:28:08;9.06;78.88
77247;SHT35;66279;42.820;23.374;2023-04-30T05:30:34;9.18;78.71
77247;SHT35;66279;42.820;23.374;2023-04-30T05:32:59;9.25;78.18
77247;SHT35;66279;42.820;23.374;2023-04-30T05:35:25;9.32;78.07
77247;SHT35;66279;42.820;23.374;2023-04-30T05:37:52;9.36;77.03
77247;SHT35;66279;42.820;23.374;2023-04-30T05:40:18;9.43;77.27
77247;SHT35;66279;42.820;23.374;2023-04-30T05:42:44;9.51;77.76
77247;SHT35;66279;42.820;23.374;2023-04-30T05:45:11;9.53;76.91
77247;SHT35;66279;42.820;23.374;2023-04-30T05:47:39;9.70;76.38
77247;SHT35;66279;42.820;23.374;2023-04-30T05:50:06;9.85;76.21
77247;SHT35;66279;42.820;23.374;2023-04-30T05:52:31;10.01;75.66
77247;SHT35;66279;42.820;23.374;2023-04-30T05:54:57;10.14;75.00
77247;SHT35;66279;42.820;23.374;2023-04-30T05:57:25;10.09;73.75
77247;SHT35;66279;42.820;23.374;2023-04-30T05:59:50;10.12;74.86
77247;SHT35;66279;42.820;23.374;2023-04-30T06:02:16;10.32;74.85
77247;SHT35;66279;42.820;23.374;2023-04-30T06:04:42;10.43;74.16
77247;SHT35;66279;42.820;23.374;2023-04-30T06:07:07;10.55;74.56
77247;SHT35;66279;42.820;23.374;2023-04-30T06:09:35;10.64;74.41
77247;SHT35;66279;42.820;23.374;2023-04-30T06:12:00;10.69;74.01
77247;SHT35;66279;42.820;23.374;2023-04-30T06:14:27;10.74;74.49
77247;SHT35;66279;42.820;23.374;2023-04-30T06:16:54;10.79;73.51
77247;SHT35;66279;42.820;23.374;2023-04-30T06:19:19;11.18;73.34
77247;SHT35;66279;42.820;23.374;2023-04-30T06:21:45;11.66;71.44
77247;SHT35;66279;42.820;23.374;2023-04-30T06:24:11;12.13;71.32
77247;SHT35;66279;42.820;23.374;2023-04-30T06:26:39;12.54;68.01
77247;SHT35;66279;42.820;23.374;2023-04-30T06:29:04;12.81;67.17
77247;SHT35;66279;42.820;23.374;2023-04-30T06:31:30;13.32;67.50
77247;SHT35;66279;42.820;23.374;2023-04-30T06:33:56;13.70;66.17
77247;SHT35;66279;42.820;23.374;2023-04-30T06:36:21;14.08;65.30
77247;SHT35;66279;42.820;23.374;2023-04-30T06:38:47;14.49;62.05
77247;SHT35;66279;42.820;23.374;2023-04-30T06:41:13;14.87;62.20
77247;SHT35;66279;42.820;23.374;2023-04-30T06:43:42;15.08;59.20
77247;SHT35;66279;42.820;23.374;2023-04-30T06:48:46;15.27;59.77
77247;SHT35;66279;42.820;23.374;2023-04-30T06:51:12;15.56;57.47
77247;SHT35;66279;42.820;23.374;2023-04-30T06:53:37;16.06;59.47
77247;SHT35;66279;42.820;23.374;2023-04-30T06:56:03;16.18;60.30
77247;SHT35;66279;42.820;23.374;2023-04-30T06:58:29;16.09;55.91
77247;SHT35;66279;42.820;23.374;2023-04-30T07:00:54;16.45;57.27
77247;SHT35;66279;42.820;23.374;2023-04-30T07:03:19;16.81;56.48
77247;SHT35;66279;42.820;23.374;2023-04-30T07:05:45;16.82;53.51
77247;SHT35;66279;42.820;23.374;2023-04-30T07:08:11;17.12;55.40
77247;SHT35;66279;42.820;23.374;2023-04-30T07:10:37;17.50;54.29
77247;SHT35;66279;42.820;23.374;2023-04-30T07:13:03;17.69;51.11
77247;SHT35;66279;42.820;23.374;2023-04-30T07:15:28;18.02;51.54
77247;SHT35;66279;42.820;23.374;2023-04-30T07:17:54;18.46;51.95
77247;SHT35;66279;42.820;23.374;2023-04-30T07:20:19;18.62;49.39
77247;SHT35;66279;42.820;23.374;2023-04-30T07:22:45;18.91;48.20
77247;SHT35;66279;42.820;23.374;2023-04-30T07:25:14;19.25;49.37
77247;SHT35;66279;42.820;23.374;2023-04-30T07:27:40;19.18;47.58
77247;SHT35;66279;42.820;23.374;2023-04-30T07:30:06;18.90;48.42
77247;SHT35;66279;42.820;23.374;2023-04-30T07:32:35;18.56;48.49
77247;SHT35;66279;42.820;23.374;2023-04-30T07:35:00;18.66;51.10
77247;SHT35;66279;42.820;23.374;2023-04-30T07:37:26;18.81;50.00
77247;SHT35;66279;42.820;23.374;2023-04-30T07:39:52;19.07;50.98
77247;SHT35;66279;42.820;23.374;2023-04-30T07:42:17;19.58;49.37
77247;SHT35;66279;42.820;23.374;2023-04-30T07:44:43;19.90;46.34
77247;SHT35;66279;42.820;23.374;2023-04-30T07:47:08;20.19;47.70
77247;SHT35;66279;42.820;23.374;2023-04-30T07:49:34;20.33;44.63
77247;SHT35;66279;42.820;23.374;2023-04-30T07:52:00;20.41;45.93
77247;SHT35;66279;42.820;23.374;2023-04-30T07:54:26;20.57;45.68
77247;SHT35;66279;42.820;23.374;2023-04-30T07:56:51;20.20;44.95
77247;SHT35;66279;42.820;23.374;2023-04-30T07:59:17;20.16;46.85
77247;SHT35;66279;42.820;23.374;2023-04-30T08:01:43;19.66;44.46
77247;SHT35;66279;42.820;23.374;2023-04-30T08:04:09;19.30;48.37
77247;SHT35;66279;42.820;23.374;2023-04-30T08:06:34;18.93;47.18
77247;SHT35;66279;42.820;23.374;2023-04-30T08:09:00;18.87;51.03
77247;SHT35;66279;42.820;23.374;2023-04-30T08:11:26;18.90;50.31
77247;SHT35;66279;42.820;23.374;2023-04-30T08:13:51;18.84;51.25
77247;SHT35;66279;42.820;23.374;2023-04-30T08:16:17;19.06;51.84
77247;SHT35;66279;42.820;23.374;2023-04-30T08:18:42;19.07;50.87
77247;SHT35;66279;42.820;23.374;2023-04-30T08:21:10;18.87;50.20
77247;SHT35;66279;42.820;23.374;2023-04-30T08:23:36;18.57;50.82
77247;SHT35;66279;42.820;23.374;2023-04-30T08:26:01;18.62;51.38
77247;SHT35;66279;42.820;23.374;2023-04-30T08:28:27;18.62;51.83
77247;SHT35;66279;42.820;23.374;2023-04-30T08:30:53;18.51;50.97
77247;SHT35;66279;42.820;23.374;2023-04-30T08:33:19;18.32;51.13
77247;SHT35;66279;42.820;23.374;2023-04-30T08:35:44;18.21;51.22
77247;SHT35;66279;42.820;23.374;2023-04-30T08:38:10;18.18;52.10
77247;SHT35;66279;42.820;23.374;2023-04-30T08:40:36;18.13;50.59
77247;SHT35;66279;42.820;23.374;2023-04-30T08:43:11;18.21;51.24
77247;SHT35;66279;42.820;23.374;2023-04-30T08:45:37;18.48;50.80
77247;SHT35;66279;42.820;23.374;2023-04-30T08:48:03;18.56;50.51
77247;SHT35;66279;42.820;23.374;2023-04-30T08:50:29;18.64;49.90
77247;SHT35;66279;42.820;23.374;2023-04-30T08:52:59;18.80;48.44
77247;SHT35;66279;42.820;23.374;2023-04-30T08:55:29;19.30;47.25
77247;SHT35;66279;42.820;23.374;2023-04-30T08:57:54;20.06;46.02
77247;SHT35;66279;42.820;23.374;2023-04-30T09:00:20;20.61;44.58
77247;SHT35;66279;42.820;23.374;2023-04-30T09:02:47;21.19;43.89
77247;SHT35;66279;42.820;23.374;2023-04-30T09:05:14;21.66;45.23
77247;SHT35;66279;42.820;23.374;2023-04-30T09:07:42;21.84;41.91
77247;SHT35;66279;42.820;23.374;2023-04-30T09:10:15;22.52;40.78
77247;SHT35;66279;42.820;23.374;2023-04-30T09:12:44;22.62;39.58
77247;SHT35;66279;42.820;23.374;2023-04-30T09:15:10;22.28;41.66
77247;SHT35;66279;42.820;23.374;2023-04-30T09:17:37;21.74;43.38
77247;SHT35;66279;42.820;23.374;2023-04-30T09:20:12;20.96;48.08
77247;SHT35;66279;42.820;23.374;2023-04-30T09:22:40;20.88;52.41
77247;SHT35;66279;42.820;23.374;2023-04-30T09:25:07;21.06;54.28
77247;SHT35;66279;42.820;23.374;2023-04-30T09:27:32;20.85;53.67
77247;SHT35;66279;42.820;23.374;2023-04-30T09:29:58;20.44;55.44
77247;SHT35;66279;42.820;23.374;2023-04-30T09:32:24;19.69;58.51
77247;SHT35;66279;42.820;23.374;2023-04-30T09:34:49;18.63;56.12
77247;SHT35;66279;42.820;23.374;2023-04-30T09:37:15;17.16;60.81
77247;SHT35;66279;42.820;23.374;2023-04-30T09:39:49;16.41;62.34
77247;SHT35;66279;42.820;23.374;2023-04-30T09:42:15;16.16;65.08
77247;SHT35;66279;42.820;23.374;2023-04-30T09:44:41;16.27;63.52
77247;SHT35;66279;42.820;23.374;2023-04-30T09:47:18;16.30;66.96
77247;SHT35;66279;42.820;23.374;2023-04-30T09:49:47;16.44;65.29
77247;SHT35;66279;42.820;23.374;2023-04-30T09:52:16;16.44;66.45
77247;SHT35;66279;42.820;23.374;2023-04-30T18:52:22;11.57;79.73
77247;SHT35;66279;42.820;23.374;2023-04-30T18:54:48;11.55;78.11
77247;SHT35;66279;42.820;23.374;2023-04-30T18:57:13;11.54;79.14
77247;SHT35;66279;42.820;23.374;2023-04-30T18:59:42;11.42;78.98
77247;SHT35;66279;42.820;23.374;2023-04-30T19:02:09;11.35;79.31
77247;SHT35;66279;42.820;23.374;2023-04-30T19:04:35;11.35;80.04
77247;SHT35;66279;42.820;23.374;2023-04-30T19:07:02;11.28;80.65
77247;SHT35;66279;42.820;23.374;2023-04-30T19:09:27;11.28;79.75
77247;SHT35;66279;42.820;23.374;2023-04-30T19:11:53;11.25;79.55
77247;SHT35;66279;42.820;23.374;2023-04-30T19:14:19;11.22;79.69
77247;SHT35;66279;42.820;23.374;2023-04-30T19:16:44;11.21;79.66
77247;SHT35;66279;42.820;23.374;2023-04-30T19:19:11;11.25;80.18
77247;SHT35;66279;42.820;23.374;2023-04-30T19:21:36;11.24;79.72
77247;SHT35;66279;42.820;23.374;2023-04-30T19:24:02;11.30;78.85
77247;SHT35;66279;42.820;23.374;2023-04-30T19:26:28;11.31;80.01
77247;SHT35;66279;42.820;23.374;2023-04-30T19:28:54;11.39;80.88
77247;SHT35;66279;42.820;23.374;2023-04-30T19:31:20;11.39;81.19
77247;SHT35;66279;42.820;23.374;2023-04-30T19:33:46;11.44;81.03
77247;SHT35;66279;42.820;23.374;2023-04-30T19:36:12;11.45;80.32
77247;SHT35;66279;42.820;23.374;2023-04-30T19:38:37;11.36;82.18
77247;SHT35;66279;42.820;23.374;2023-04-30T19:41:03;11.32;82.15
77247;SHT35;66279;42.820;23.374;2023-04-30T19:43:29;11.31;81.29
77247;SHT35;66279;42.820;23.374;2023-04-30T19:45:55;11.11;83.31
77247;SHT35;66279;42.820;23.374;2023-04-30T19:48:22;11.15;83.53
77247;SHT35;66279;42.820;23.374;2023-04-30T19:50:49;11.06;83.99
77247;SHT35;66279;42.820;23.374;2023-04-30T19:53:16;11.08;84.59
77247;SHT35;66279;42.820;23.374;2023-04-30T19:55:42;11.10;85.37
77247;SHT35;66279;42.820;23.374;2023-04-30T19:58:08;11.11;84.67
77247;SHT35;66279;42.820;23.374;2023-04-30T20:00:40;11.15;85.37
77247;SHT35;66279;42.820;23.374;2023-04-30T20:03:06;11.21;85.03
77247;SHT35;66279;42.820;23.374;2023-04-30T20:05:33;11.22;85.08
77247;SHT35;66279;42.820;23.374;2023-04-30T20:08:05;11.18;86.35
77247;SHT35;66279;42.820;23.374;2023-04-30T20:10:32;11.21;85.72
77247;SHT35;66279;42.820;23.374;2023-04-30T20:13:01;11.14;85.67
77247;SHT35;66279;42.820;23.374;2023-04-30T20:15:27;11.03;87.10
77247;SHT35;66279;42.820;23.374;2023-04-30T20:17:53;11.00;87.15
77247;SHT35;66279;42.820;23.374;2023-04-30T20:20:20;11.01;86.10
77247;SHT35;66279;42.820;23.374;2023-04-30T20:22:52;10.97;87.62
77247;SHT35;66279;42.820;23.374;2023-04-30T20:25:19;11.04;86.72
77247;SHT35;66279;42.820;23.374;2023-04-30T20:27:44;11.00;86.66
77247;SHT35;66279;42.820;23.374;2023-04-30T20:30:11;11.00;85.69
77247;SHT35;66279;42.820;23.374;2023-04-30T20:32:38;10.96;86.87
77247;SHT35;66279;42.820;23.374;2023-04-30T20:35:05;10.89;85.80
77247;SHT35;66279;42.820;23.374;2023-04-30T20:37:32;10.90;85.77
77247;SHT35;66279;42.820;23.374;2023-04-30T20:39:58;10.84;85.50
77247;SHT35;66279;42.820;23.374;2023-04-30T20:42:24;10.79;86.57
77247;SHT35;66279;42.820;23.374;2023-04-30T20:44:51;10.77;85.83
77247;SHT35;66279;42.820;23.374;2023-04-30T20:47:17;10.74;85.19
77247;SHT35;66279;42.820;23.374;2023-04-30T20:49:43;10.81;84.53
77247;SHT35;66279;42.820;23.374;2023-04-30T20:52:09;10.79;84.41
77247;SHT35;66279;42.820;23.374;2023-04-30T20:54:37;10.81;84.13
77247;SHT35;66279;42.820;23.374;2023-04-30T20:57:03;10.74;84.87
77247;SHT35;66279;42.820;23.374;2023-04-30T20:59:29;10.67;85.56
77247;SHT35;66279;42.820;23.374;2023-04-30T21:01:54;10.59;85.11
77247;SHT35;66279;42.820;23.374;2023-04-30T21:04:21;10.43;85.41
77247;SHT35;66279;42.820;23.374;2023-04-30T21:06:47;10.35;86.24
77247;SHT35;66279;42.820;23.374;2023-04-30T21:09:12;10.33;86.51
77247;SHT35;66279;42.820;23.374;2023-04-30T21:11:38;10.26;87.08
77247;SHT35;66279;42.820;23.374;2023-04-30T21:14:04;10.28;87.00
77247;SHT35;66279;42.820;23.374;2023-04-30T21:16:31;10.15;86.68
77247;SHT35;66279;42.820;23.374;2023-04-30T21:18:57;10.06;86.51
77247;SHT35;66279;42.820;23.374;2023-04-30T21:21:22;10.04;86.11
77247;SHT35;66279;42.820;23.374;2023-04-30T21:23:48;9.97;86.84
77247;SHT35;66279;42.820;23.374;2023-04-30T21:26:14;9.94;87.80
77247;SHT35;66279;42.820;23.374;2023-04-30T21:28:41;9.88;88.21
77247;SHT35;66279;42.820;23.374;2023-04-30T21:31:07;9.90;88.32
77247;SHT35;66279;42.820;23.374;2023-04-30T21:33:36;9.93;88.12
77247;SHT35;66279;42.820;23.374;2023-04-30T21:36:03;9.90;87.94
77247;SHT35;66279;42.820;23.374;2023-04-30T21:38:28;9.87;87.60
77247;SHT35;66279;42.820;23.374;2023-04-30T21:40:55;9.81;87.54
77247;SHT35;66279;42.820;23.374;2023-04-30T21:43:21;9.71;88.15
77247;SHT35;66279;42.820;23.374;2023-04-30T21:45:46;9.69;87.57
77247;SHT35;66279;42.820;23.374;2023-04-30T21:48:12;9.67;88.21
77247;SHT35;66279;42.820;23.374;2023-04-30T21:50:38;9.77;87.77
77247;SHT35;66279;42.820;23.374;2023-04-30T21:53:04;9.77;87.66
77247;SHT35;66279;42.820;23.374;2023-04-30T21:55:29;9.77;88.54
77247;SHT35;66279;42.820;23.374;2023-04-30T21:57:55;9.80;87.71
77247;SHT35;66279;42.820;23.374;2023-04-30T22:00:21;9.78;87.08
77247;SHT35;66279;42.820;23.374;2023-04-30T22:02:47;9.74;87.36
77247;SHT35;66279;42.820;23.374;2023-04-30T22:05:13;9.71;87.82
77247;SHT35;66279;42.820;23.374;2023-04-30T22:07:39;9.71;87.80
77247;SHT35;66279;42.820;23.374;2023-04-30T22:10:06;9.69;87.82
77247;SHT35;66279;42.820;23.374;2023-04-30T22:12:33;9.69;87.72
77247;SHT35;66279;42.820;23.374;2023-04-30T22:14:59;9.64;88.09
77247;SHT35;66279;42.820;23.374;2023-04-30T22:17:25;9.66;87.91
77247;SHT35;66279;42.820;23.374;2023-04-30T22:19:53;9.74;88.33
77247;SHT35;66279;42.820;23.374;2023-04-30T22:22:19;9.74;88.04
77247;SHT35;66279;42.820;23.374;2023-04-30T22:24:45;9.74;86.67
77247;SHT35;66279;42.820;23.374;2023-04-30T22:27:11;9.71;86.98
77247;SHT35;66279;42.820;23.374;2023-04-30T22:29:36;9.66;87.44
77247;SHT35;66279;42.820;23.374;2023-04-30T22:32:02;9.61;87.27
77247;SHT35;66279;42.820;23.374;2023-04-30T22:34:28;9.58;86.75
77247;SHT35;66279;42.820;23.374;2023-04-30T22:36:54;9.56;86.46
77247;SHT35;66279;42.820;23.374;2023-04-30T22:39:20;9.44;85.83
77247;SHT35;66279;42.820;23.374;2023-04-30T22:41:46;9.40;85.80
77247;SHT35;66279;42.820;23.374;2023-04-30T22:44:13;9.42;85.40
77247;SHT35;66279;42.820;23.374;2023-04-30T22:46:39;9.35;85.48
77247;SHT35;66279;42.820;23.374;2023-04-30T22:49:07;9.23;85.22
77247;SHT35;66279;42.820;23.374;2023-04-30T22:51:33;9.09;85.57
77247;SHT35;66279;42.820;23.374;2023-04-30T22:54:02;9.01;86.06
77247;SHT35;66279;42.820;23.374;2023-04-30T22:56:28;8.92;85.79
77247;SHT35;66279;42.820;23.374;2023-04-30T22:58:54;8.81;86.23
77247;SHT35;66279;42.820;23.374;2023-04-30T23:01:20;8.63;86.07
77247;SHT35;66279;42.820;23.374;2023-04-30T23:03:46;8.50;86.29
77247;SHT35;66279;42.820;23.374;2023-04-30T23:06:11;8.48;86.32
77247;SHT35;66279;42.820;23.374;2023-04-30T23:08:37;8.37;86.21
77247;SHT35;66279;42.820;23.374;2023-04-30T23:11:03;8.27;86.86
77247;SHT35;66279;42.820;23.374;2023-04-30T23:13:29;8.14;88.03
77247;SHT35;66279;42.820;23.374;2023-04-30T23:15:56;8.09;87.27
77247;SHT35;66279;42.820;23.374;2023-04-30T23:18:23;8.02;87.54
77247;SHT35;66279;42.820;23.374;2023-04-30T23:20:48;7.95;87.71
77247;SHT35;66279;42.820;23.374;2023-04-30T23:23:14;7.88;87.11
77247;SHT35;66279;42.820;23.374;2023-04-30T23:25:40;7.88;87.13
77247;SHT35;66279;42.820;23.374;2023-04-30T23:28:05;7.86;88.11
77247;SHT35;66279;42.820;23.374;2023-04-30T23:30:31;7.81;87.27
77247;SHT35;66279;42.820;23.374;2023-04-30T23:32:57;7.75;87.52
77247;SHT35;66279;42.820;23.374;2023-04-30T23:35:22;7.74;87.55
77247;SHT35;66279;42.820;23.374;2023-04-30T23:37:48;7.75;87.57
77247;SHT35;66279;42.820;23.374;2023-04-30T23:40:13;7.64;88.30
77247;SHT35;66279;42.820;23.374;2023-04-30T23:42:39;7.69;87.89
77247;SHT35;66279;42.820;23.374;2023-04-30T23:45:06;7.65;87.34
77247;SHT35;66279;42.820;23.374;2023-04-30T23:47:33;7.64;87.11
77247;SHT35;66279;42.820;23.374;2023-04-30T23:50:02;7.62;87.39
77247;SHT35;66279;42.820;23.374;2023-04-30T23:52:27;7.62;87.37
77247;SHT35;66279;42.820;23.374;2023-04-30T23:54:53;7.57;87.60
77247;SHT35;66279;42.820;23.374;2023-04-30T23:57:18;7.50;87.22
77247;SHT35;66279;42.820;23.374;2023-04-30T23:59:44;7.38;86.97
